Aeroporto :
LOGIN :

Iscrizione | Disclaimer

   EN    FR    IT 

 










Sommario :    VFR   VFR Marginale   IFR   IFR Intensivo   IFR Molto Intensivo
Visibilità : 
Base nubi : 
>= 8 km
>= 3000ft
5 / 8 km
1000 / 3000 ft
1500m / 5 km
500 / 1000 ft
800 / 1500m
200 / 500 ft
< 800m
< 200 ft
Simboli :   Temporali  Nebbia  Neve Forte  Precipitazioni Forti  Vento > 20 kt
SIGMETs :   Varie  Temporali  Ghiacco  Turbolenza  Onda orograficha  Ceneri Vulcaniche







- Altitudine del aeroporto : 19 ft
- Codice IATA : LCY
- Carte del aeroporto


EGLC - London City

ULTIMO METAR :
  • 210550Z AUTO 24008KT 9999 NCD 10/06 Q1023

METARs OBSOLETI :
  • 210520Z AUTO 23009KT 9999 NCD 10/06 Q1023
  • 210450Z AUTO 25005KT 210V290 9999 NCD 09/06 Q1023
  • 210420Z AUTO 22005KT 170V250 9999 NCD 09/06 Q1022
  • 210350Z AUTO 22007KT 190V250 9999 NCD 09/06 Q1022
  • 210320Z AUTO 23007KT 190V260 9999 NCD 09/06 Q1023

TAF TAF EGLC
Valido dal 21 a 06 ore il 21 a 15 ore UTC


210506Z 2106/2115 21008KT 9999 SCT030
TEMPO 2106/2115 BKN012
PROB30
TEMPO 2106/2110 6000 BKN006
ATIS : +44 20 7646 0224
Nessun NOTAM noto per questo aeroporto.



MetMap, La meteo Aeronautica in un colpo d'occhio ! - Copyright ORBIFLY Dicembre 2007 - Disclaimer

ORBIFLY MET'MAP TEAM :

Programmazione e sviluppo : Alexandra Zaïnal
Concezione e sviluppo : Baudouin d'Aumeries
Co-Programmazione e sviluppo : Marc-Olivier Méhu
Supporto tecnico e logistico : Manuel Goepfert
Aiuto per la traduzione : Arnaldo La Scala

Contatto : metmap@orbifly.com




FONTI E CREDITI :

   NOAA